createdAt,value
2018-12-05T00:01:26.573Z,2.80
2018-12-05T00:03:56.622Z,2.27
2018-12-05T00:06:26.726Z,2.97
2018-12-05T00:08:57.457Z,3.17
2018-12-05T00:11:28.964Z,3.00
2018-12-05T00:13:59.575Z,3.30
2018-12-05T00:16:30.051Z,2.87
2018-12-05T00:19:01.742Z,3.23
2018-12-05T00:21:32.509Z,2.73
2018-12-05T00:24:02.458Z,2.70
2018-12-05T00:26:32.957Z,2.63
2018-12-05T00:29:04.511Z,2.97
2018-12-05T00:31:34.910Z,2.50
2018-12-05T00:34:05.133Z,3.30
2018-12-05T00:36:36.802Z,3.30
2018-12-05T00:39:09.902Z,4.53
2018-12-05T00:41:41.362Z,3.10
2018-12-05T00:44:11.573Z,2.90
2018-12-05T00:46:42.112Z,3.10
2018-12-05T00:49:13.854Z,2.77
2018-12-05T00:51:44.584Z,3.90
2018-12-05T00:54:14.786Z,3.50
2018-12-05T00:56:44.871Z,3.50
2018-12-05T00:59:15.719Z,3.23
2018-12-05T01:01:46.473Z,3.33
2018-12-05T01:04:16.497Z,3.47
2018-12-05T01:06:47.014Z,3.30
2018-12-05T01:09:18.328Z,3.00
2018-12-05T01:11:49.713Z,2.40
2018-12-05T01:14:19.809Z,3.97
2018-12-05T01:16:49.761Z,2.93
2018-12-05T01:19:19.710Z,3.60
2018-12-05T01:21:49.702Z,4.00
2018-12-05T01:24:19.811Z,3.33
2018-12-05T01:26:50.209Z,3.77
2018-12-05T01:29:20.900Z,4.10
2018-12-05T01:31:52.048Z,3.30
2018-12-05T01:34:23.409Z,3.83
2018-12-05T01:36:54.017Z,3.00
2018-12-05T01:39:24.074Z,3.30
2018-12-05T01:41:54.827Z,3.27
2018-12-05T01:44:25.586Z,3.33
2018-12-05T01:46:55.641Z,4.20
2018-12-05T01:49:26.146Z,3.57
2018-12-05T01:51:56.206Z,3.40
2018-12-05T01:54:26.767Z,3.13
2018-12-05T01:56:56.906Z,3.40
2018-12-05T01:59:27.049Z,3.20
2018-12-05T02:01:58.130Z,3.67
2018-12-05T02:04:29.374Z,3.10
2018-12-05T02:07:01.343Z,3.20
2018-12-05T02:09:32.078Z,3.80
2018-12-05T02:12:03.218Z,3.33
2018-12-05T02:14:34.061Z,3.87
2018-12-05T02:17:05.259Z,3.97
2018-12-05T02:19:35.233Z,4.10
2018-12-05T02:22:05.838Z,3.60
2018-12-05T02:24:36.578Z,4.00
2018-12-05T02:27:07.753Z,4.30
2018-12-05T02:29:44.564Z,4.27
2018-12-05T02:32:16.065Z,3.70
2018-12-05T02:34:46.793Z,4.03
2018-12-05T02:37:18.096Z,3.30
2018-12-05T02:39:50.011Z,3.37
2018-12-05T02:42:20.210Z,3.80
2018-12-05T02:44:50.426Z,3.73
2018-12-05T02:47:21.839Z,4.20
2018-12-05T02:49:53.695Z,4.83
2018-12-05T02:52:25.034Z,3.70
2018-12-05T02:54:55.830Z,3.57
2018-12-05T02:57:27.017Z,3.77
2018-12-05T02:59:58.981Z,3.30
2018-12-05T03:02:29.619Z,4.20
2018-12-05T03:05:00.805Z,3.80
2018-12-05T03:07:31.322Z,4.00
2018-12-05T03:10:02.721Z,3.33
2018-12-05T03:12:32.811Z,4.93
2018-12-05T03:15:03.731Z,3.30
2018-12-05T03:17:34.968Z,4.00
2018-12-05T03:20:06.048Z,3.53
2018-12-05T03:22:37.774Z,4.60
2018-12-05T03:25:08.734Z,3.60
2018-12-05T03:27:39.577Z,4.30
2018-12-05T03:30:11.046Z,3.40
2018-12-05T03:32:43.000Z,3.83
2018-12-05T03:35:13.814Z,4.20
2018-12-05T03:37:45.298Z,3.80
2018-12-05T03:40:15.513Z,3.90
2018-12-05T03:42:45.645Z,4.50
2018-12-05T03:45:16.518Z,3.50
2018-12-05T03:47:46.820Z,4.10
2018-12-05T03:50:17.453Z,3.80
2018-12-05T03:52:48.290Z,4.17
2018-12-05T03:55:20.191Z,3.10
2018-12-05T03:57:50.962Z,4.20
2018-12-05T04:00:22.728Z,4.60
2018-12-05T04:02:53.501Z,3.57
2018-12-05T04:05:25.024Z,4.00
2018-12-05T04:07:55.825Z,3.83
2018-12-05T04:10:25.946Z,4.50
2018-12-05T04:12:57.230Z,3.97
2018-12-05T04:15:27.846Z,3.97
2018-12-05T04:17:59.187Z,3.90
2018-12-05T04:20:30.444Z,4.17
2018-12-05T04:23:01.617Z,4.00
2018-12-05T04:25:32.374Z,4.27
2018-12-05T04:28:04.331Z,4.70
2018-12-05T04:30:35.570Z,3.23
2018-12-05T04:33:05.586Z,3.57
2018-12-05T04:35:36.097Z,4.87
2018-12-05T04:38:06.757Z,4.10
2018-12-05T04:40:37.357Z,4.37
2018-12-05T04:43:07.430Z,3.97
2018-12-05T04:45:37.543Z,3.90
2018-12-05T04:48:08.707Z,3.90
2018-12-05T04:50:38.706Z,3.63
2018-12-05T04:53:09.276Z,4.10
2018-12-05T04:55:40.721Z,3.80
2018-12-05T04:58:11.418Z,3.80
2018-12-05T05:00:43.190Z,4.50
2018-12-05T05:03:13.554Z,3.17
2018-12-05T05:05:44.826Z,4.43
2018-12-05T05:08:16.228Z,3.57
2018-12-05T05:10:46.331Z,3.20
2018-12-05T05:13:17.102Z,3.67
2018-12-05T05:15:47.575Z,3.47
2018-12-05T05:18:17.702Z,3.60
2018-12-05T05:20:48.274Z,3.37
2018-12-05T05:23:18.298Z,3.53
2018-12-05T05:25:48.968Z,4.03
2018-12-05T05:28:19.080Z,4.00
2018-12-05T05:30:49.271Z,3.00
2018-12-05T05:33:20.734Z,4.93
2018-12-05T05:35:51.678Z,3.70
2018-12-05T05:38:21.732Z,3.83
2018-12-05T05:40:51.792Z,4.17
2018-12-05T05:43:21.865Z,4.47
2018-12-05T05:45:52.536Z,5.07
2018-12-05T05:48:23.229Z,4.20
2018-12-05T05:50:53.361Z,4.10
2018-12-05T05:53:23.895Z,3.93
2018-12-05T05:55:53.997Z,4.17
2018-12-05T05:58:24.870Z,3.70
2018-12-05T06:00:55.626Z,4.00
2018-12-05T06:03:26.140Z,3.87
2018-12-05T06:05:57.601Z,3.97
2018-12-05T06:08:28.200Z,4.67
2018-12-05T06:10:59.423Z,4.40
2018-12-05T06:13:29.466Z,4.47
2018-12-05T06:16:00.093Z,5.87
2018-12-05T06:18:31.353Z,5.37
2018-12-05T06:21:01.529Z,5.17
2018-12-05T06:23:31.590Z,5.40
2018-12-05T06:26:01.643Z,5.10
2018-12-05T06:28:31.746Z,5.70
2018-12-05T06:31:03.241Z,4.70
2018-12-05T06:33:34.368Z,5.20
2018-12-05T06:36:05.653Z,4.90
2018-12-05T06:38:36.256Z,6.57
2018-12-05T06:41:06.961Z,5.53
2018-12-05T06:43:36.937Z,6.30
2018-12-05T06:46:07.109Z,5.60
2018-12-05T06:48:37.971Z,5.57
2018-12-05T06:51:10.009Z,6.30
2018-12-05T06:53:40.074Z,5.97
2018-12-05T06:56:10.069Z,6.50
2018-12-05T06:58:40.801Z,6.53
2018-12-05T07:01:10.983Z,6.20
2018-12-05T07:03:40.874Z,6.80
2018-12-05T07:06:11.046Z,6.90
2018-12-05T07:08:42.318Z,6.97
2018-12-05T07:11:12.832Z,7.60
2018-12-05T07:13:44.123Z,7.17
2018-12-05T07:16:15.667Z,8.27
2018-12-05T07:18:46.622Z,8.33
2018-12-05T07:21:17.462Z,7.80
2018-12-05T07:23:47.513Z,10.00
2018-12-05T07:26:17.616Z,8.07
2018-12-05T07:28:47.734Z,7.23
2018-12-05T07:31:18.573Z,7.20
2018-12-05T07:33:49.263Z,8.47
2018-12-05T07:36:20.149Z,8.57
2018-12-05T07:38:52.399Z,9.10
2018-12-05T07:41:22.423Z,10.50
2018-12-05T07:43:54.282Z,10.90
2018-12-05T07:46:24.533Z,9.77
2018-12-05T07:48:54.568Z,7.37
2018-12-05T07:51:25.602Z,7.07
2018-12-05T07:53:57.851Z,6.93
2018-12-05T07:56:28.381Z,8.17
2018-12-05T07:58:58.354Z,7.87
2018-12-05T08:01:29.357Z,8.47
2018-12-05T08:03:59.390Z,8.20
2018-12-05T08:06:29.440Z,8.80
2018-12-05T08:08:59.538Z,7.30
2018-12-05T08:11:29.618Z,8.10
2018-12-05T08:14:00.811Z,7.80
2018-12-05T08:16:31.458Z,7.77
2018-12-05T08:19:02.162Z,7.17
2018-12-05T08:21:33.501Z,8.30
2018-12-05T08:24:04.139Z,8.17
2018-12-05T08:26:35.107Z,9.23
2018-12-05T08:29:05.818Z,9.60
2018-12-05T08:31:48.954Z,9.07
2018-12-05T08:34:19.600Z,9.80
2018-12-05T08:36:49.620Z,9.83
2018-12-05T08:39:19.641Z,8.23
2018-12-05T08:41:52.119Z,7.87
2018-12-05T08:44:22.045Z,8.10
2018-12-05T08:46:52.958Z,8.93
2018-12-05T08:49:23.706Z,7.77
2018-12-05T08:51:53.771Z,8.00
2018-12-05T08:54:23.890Z,6.93
2018-12-05T08:56:53.809Z,7.03
2018-12-05T08:59:25.418Z,7.13
2018-12-05T09:01:56.153Z,6.90
2018-12-05T09:04:26.302Z,7.13
2018-12-05T09:06:57.050Z,7.80
2018-12-05T09:09:27.565Z,7.40
2018-12-05T09:11:59.409Z,8.13
2018-12-05T09:14:30.407Z,6.53
2018-12-05T09:17:02.160Z,7.40
2018-12-05T09:19:32.866Z,7.30
2018-12-05T09:22:02.899Z,6.80
2018-12-05T09:24:32.894Z,6.90
2018-12-05T09:27:03.440Z,6.67
2018-12-05T09:29:34.882Z,6.90
2018-12-05T09:32:06.218Z,6.77
2018-12-05T09:34:36.399Z,6.03
2018-12-05T09:37:06.896Z,6.40
2018-12-05T09:39:38.606Z,6.77
2018-12-05T09:42:09.853Z,6.77
2018-12-05T09:44:39.833Z,5.53
2018-12-05T09:47:15.742Z,5.90
2018-12-05T09:49:42.344Z,5.47
2018-12-05T09:52:12.301Z,5.23
2018-12-05T09:54:42.922Z,5.73
2018-12-05T09:57:13.996Z,5.50
2018-12-05T09:59:45.689Z,5.50
2018-12-05T10:02:16.266Z,4.77
2018-12-05T10:04:46.754Z,5.17
2018-12-05T10:07:17.259Z,4.80
2018-12-05T10:09:47.351Z,4.73
2018-12-05T10:12:18.818Z,5.30
2018-12-05T10:14:50.005Z,4.33
2018-12-05T10:17:20.767Z,5.43
2018-12-05T10:19:51.578Z,4.60
2018-12-05T10:22:21.619Z,4.27
2018-12-05T10:24:52.085Z,4.80
2018-12-05T10:27:22.218Z,5.20
2018-12-05T10:29:52.730Z,4.63
2018-12-05T10:32:22.735Z,4.70
2018-12-05T10:34:53.246Z,4.90
2018-12-05T10:37:24.517Z,5.10
2018-12-05T10:39:55.871Z,4.07
2018-12-05T10:42:27.508Z,4.03
2018-12-05T10:44:58.248Z,4.87
2018-12-05T10:47:28.240Z,4.00
2018-12-05T10:49:58.924Z,3.87
2018-12-05T10:52:29.759Z,4.07
2018-12-05T10:54:59.837Z,4.80
2018-12-05T10:57:31.237Z,3.67
2018-12-05T11:00:01.256Z,3.83
2018-12-05T11:03:40.946Z,4.50
2018-12-05T11:06:16.751Z,4.30
2018-12-05T11:08:51.732Z,4.57
2018-12-05T11:11:27.281Z,3.50
2018-12-05T11:14:02.964Z,3.53
2018-12-05T11:16:41.654Z,4.00
2018-12-05T11:19:17.298Z,3.63
2018-12-05T11:21:53.230Z,3.63
2018-12-05T11:24:30.263Z,4.73
2018-12-05T11:27:01.690Z,3.80
2018-12-05T11:29:32.552Z,3.47
2018-12-05T11:32:03.114Z,3.30
2018-12-05T11:34:34.743Z,4.00
2018-12-05T11:37:07.630Z,3.33
2018-12-05T11:39:40.619Z,3.30
2018-12-05T11:42:12.122Z,3.30
2018-12-05T11:44:42.342Z,3.00
2018-12-05T11:47:13.345Z,4.00
2018-12-05T11:49:43.465Z,3.97
2018-12-05T11:52:14.104Z,3.73
2018-12-05T11:54:45.388Z,3.90
2018-12-05T11:57:15.305Z,5.37
2018-12-05T11:59:46.828Z,4.03
2018-12-05T12:02:22.252Z,3.30
2018-12-05T12:04:50.744Z,3.67
2018-12-05T12:07:22.532Z,4.77
2018-12-05T12:09:52.728Z,5.07
2018-12-05T12:12:28.225Z,4.13
2018-12-05T12:14:58.942Z,3.90
2018-12-05T12:17:29.157Z,4.20
2018-12-05T12:19:59.232Z,5.33
2018-12-05T12:22:29.900Z,3.90
2018-12-05T12:24:59.983Z,4.13
2018-12-05T12:27:29.951Z,4.00
2018-12-05T12:30:01.412Z,4.17
2018-12-05T12:32:32.039Z,4.07
2018-12-05T12:35:02.131Z,4.50
2018-12-05T12:37:32.202Z,3.80
2018-12-05T12:40:04.036Z,4.87
2018-12-05T12:42:34.064Z,4.30
2018-12-05T12:45:05.227Z,3.70
2018-12-05T12:47:35.417Z,2.80
2018-12-05T12:50:07.803Z,3.50
2018-12-05T12:52:37.964Z,3.20
2018-12-05T12:55:08.486Z,3.10
2018-12-05T12:57:39.655Z,2.80
2018-12-05T13:00:11.508Z,2.93
2018-12-05T13:02:41.599Z,2.70
2018-12-05T13:05:12.411Z,2.53
2018-12-05T13:07:43.113Z,2.90
2018-12-05T13:10:14.527Z,2.60
2018-12-05T13:12:44.647Z,3.40
2018-12-05T13:15:14.794Z,3.57
2018-12-05T13:17:44.916Z,4.00
2018-12-05T13:20:15.143Z,2.50
2018-12-05T13:22:47.524Z,3.13
2018-12-05T13:25:18.078Z,3.50
2018-12-05T13:27:49.030Z,2.60
2018-12-05T13:30:19.710Z,3.03
2018-12-05T13:32:50.181Z,3.13
2018-12-05T13:35:20.672Z,2.73
2018-12-05T13:37:50.629Z,3.27
2018-12-05T13:40:21.271Z,2.77
2018-12-05T13:42:51.270Z,2.80
2018-12-05T13:45:22.792Z,3.30
2018-12-05T13:47:54.274Z,3.77
2018-12-05T13:50:24.598Z,2.67
2018-12-05T13:52:55.131Z,3.07
2018-12-05T13:55:25.720Z,3.43
2018-12-05T13:57:55.674Z,2.97
2018-12-05T14:00:25.994Z,2.57
2018-12-05T14:02:56.047Z,2.47
2018-12-05T14:05:26.922Z,2.40
2018-12-05T14:07:56.903Z,2.73
2018-12-05T14:10:26.972Z,2.97
2018-12-05T14:12:59.713Z,3.00
2018-12-05T14:15:30.427Z,3.00
2018-12-05T14:18:03.299Z,3.67
2018-12-05T14:20:34.059Z,3.03
2018-12-05T14:23:04.132Z,2.70
2018-12-05T14:25:35.257Z,3.10
2018-12-05T14:28:05.834Z,3.77
2018-12-05T14:30:36.003Z,3.50
2018-12-05T14:33:06.614Z,3.97
2018-12-05T14:35:36.602Z,4.40
2018-12-05T14:38:08.533Z,3.50
2018-12-05T14:40:38.702Z,4.07
2018-12-05T14:43:08.660Z,4.30
2018-12-05T14:45:38.666Z,3.70
2018-12-05T14:48:09.622Z,3.87
2018-12-05T14:50:41.638Z,3.90
2018-12-05T14:53:12.114Z,3.30
2018-12-05T14:55:43.569Z,3.60
2018-12-05T14:58:14.323Z,3.00
2018-12-05T15:00:45.546Z,4.00
2018-12-05T15:03:16.296Z,3.77
2018-12-05T15:05:47.545Z,3.60
2018-12-05T15:08:18.186Z,4.23
2018-12-05T15:10:49.498Z,3.60
2018-12-05T15:13:19.762Z,3.47
2018-12-05T15:15:49.969Z,3.80
2018-12-05T15:18:20.512Z,4.00
2018-12-05T15:20:51.148Z,4.03
2018-12-05T15:23:21.354Z,5.97
2018-12-05T15:25:52.328Z,7.23
2018-12-05T15:28:23.205Z,6.70
2018-12-05T15:30:54.935Z,6.20
2018-12-05T15:33:25.036Z,6.40
2018-12-05T15:35:55.899Z,6.60
2018-12-05T15:38:27.156Z,6.27
2018-12-05T15:40:57.969Z,5.60
2018-12-05T15:43:28.606Z,6.70
2018-12-05T15:45:58.623Z,9.30
2018-12-05T15:48:28.735Z,10.03
2018-12-05T15:50:58.666Z,5.50
2018-12-05T15:53:28.594Z,3.93
2018-12-05T15:55:59.358Z,3.70
2018-12-05T15:58:31.240Z,3.50
2018-12-05T16:01:01.383Z,3.90
2018-12-05T16:03:32.458Z,3.93
2018-12-05T16:06:03.091Z,4.80
2018-12-05T16:08:33.145Z,3.50
2018-12-05T16:11:04.444Z,3.07
2018-12-05T16:13:34.608Z,3.23
2018-12-05T16:16:08.106Z,3.33
2018-12-05T16:18:39.561Z,3.30
2018-12-05T16:21:10.074Z,3.63
2018-12-05T16:23:40.156Z,3.13
2018-12-05T16:26:11.173Z,4.20
2018-12-05T16:28:43.328Z,3.53
2018-12-05T16:31:14.050Z,3.30
2018-12-05T16:33:44.630Z,2.67
2018-12-05T16:36:15.384Z,3.20
2018-12-05T16:38:46.058Z,3.20
2018-12-05T16:41:17.559Z,4.30
2018-12-05T16:43:48.868Z,3.57
2018-12-05T16:46:19.707Z,4.03
2018-12-05T16:48:50.243Z,3.10
2018-12-05T16:51:20.440Z,3.00
2018-12-05T16:53:52.018Z,3.10
2018-12-05T16:56:23.071Z,3.00
2018-12-05T16:58:53.724Z,3.50
2018-12-05T17:01:24.500Z,2.67
2018-12-05T17:03:55.282Z,2.80
2018-12-05T17:06:25.380Z,3.13
2018-12-05T17:08:57.806Z,2.70
2018-12-05T17:11:27.923Z,2.87
2018-12-05T17:13:58.027Z,3.47
2018-12-05T17:16:28.879Z,3.33
2018-12-05T17:18:59.802Z,2.50
2018-12-05T17:21:31.283Z,2.93
2018-12-05T17:24:02.110Z,2.33
2018-12-05T17:26:32.144Z,3.20
2018-12-05T17:29:02.095Z,5.20
2018-12-05T17:31:32.735Z,8.50
2018-12-05T17:34:03.537Z,7.30
2018-12-05T17:36:33.619Z,8.13
2018-12-05T17:39:08.125Z,7.57
2018-12-05T17:41:39.707Z,4.23
2018-12-05T17:44:09.764Z,3.13
2018-12-05T17:46:40.605Z,2.80
2018-12-05T17:49:10.653Z,2.43
2018-12-05T17:51:40.724Z,3.50
2018-12-05T17:54:14.747Z,3.63
2018-12-05T17:56:44.376Z,3.10
2018-12-05T17:59:14.702Z,2.97
2018-12-05T18:01:45.321Z,2.90
2018-12-05T18:04:15.281Z,3.43
2018-12-05T18:06:45.862Z,3.20
2018-12-05T18:09:16.531Z,3.10
2018-12-05T18:11:47.201Z,3.03
2018-12-05T18:14:17.796Z,3.13
2018-12-05T18:16:47.783Z,3.30
2018-12-05T18:19:18.494Z,2.70
2018-12-05T18:21:49.247Z,3.10
2018-12-05T18:24:19.934Z,3.00
2018-12-05T18:26:50.247Z,3.00
2018-12-05T18:29:20.382Z,3.47
2018-12-05T18:31:51.814Z,3.60
2018-12-05T18:34:22.471Z,3.00
2018-12-05T18:36:53.163Z,3.90
2018-12-05T18:39:23.974Z,3.17
2018-12-05T18:41:54.788Z,3.27
2018-12-05T18:44:24.830Z,2.67
2018-12-05T18:46:54.874Z,3.20
2018-12-05T18:49:25.005Z,4.10
2018-12-05T18:51:57.225Z,3.33
2018-12-05T18:54:28.786Z,3.90
2018-12-05T18:56:58.806Z,2.57
2018-12-05T18:59:29.083Z,3.10
2018-12-05T19:01:59.581Z,5.50
2018-12-05T19:04:30.362Z,4.33
2018-12-05T19:07:01.140Z,3.27
2018-12-05T19:09:31.984Z,3.00
2018-12-05T19:12:03.619Z,4.27
2018-12-05T19:14:38.922Z,3.00
2018-12-05T19:17:09.567Z,3.37
2018-12-05T19:19:40.386Z,3.20
2018-12-05T19:22:12.627Z,4.27
2018-12-05T19:24:43.887Z,3.93
2018-12-05T19:27:13.974Z,7.10
2018-12-05T19:29:44.739Z,5.17
2018-12-05T19:32:14.752Z,10.70
2018-12-05T19:34:46.956Z,21.17
2018-12-05T19:37:18.284Z,15.20
2018-12-05T19:39:48.438Z,4.00
2018-12-05T19:42:18.469Z,3.57
2018-12-05T19:44:49.270Z,5.17
2018-12-05T19:47:20.726Z,6.80
2018-12-05T19:49:51.665Z,4.60
2018-12-05T19:52:22.299Z,4.40
2018-12-05T19:54:53.035Z,4.00
2018-12-05T19:57:24.899Z,6.17
2018-12-05T19:59:56.753Z,5.00
2018-12-05T20:02:26.948Z,4.33
2018-12-05T20:04:57.783Z,4.40
2018-12-05T20:07:27.826Z,3.50
2018-12-05T20:09:57.972Z,7.10
2018-12-05T20:12:29.473Z,6.83
2018-12-05T20:14:59.819Z,6.90
2018-12-05T20:17:30.957Z,3.60
2018-12-05T20:20:01.202Z,4.53
2018-12-05T20:22:33.574Z,3.40
2018-12-05T20:25:03.775Z,3.63
2018-12-05T20:27:33.910Z,3.67
2018-12-05T20:30:05.463Z,3.40
2018-12-05T20:32:35.638Z,3.60
2018-12-05T20:35:06.534Z,4.10
2018-12-05T20:37:36.541Z,3.67
2018-12-05T20:40:07.531Z,3.50
2018-12-05T20:42:56.673Z,3.13
2018-12-05T20:45:27.348Z,3.67
2018-12-05T20:47:58.688Z,12.20
2018-12-05T20:50:28.714Z,4.10
2018-12-05T20:52:59.455Z,3.20
2018-12-05T20:55:29.538Z,3.03
2018-12-05T20:58:00.717Z,4.00
2018-12-05T21:00:31.278Z,3.87
2018-12-05T21:03:02.457Z,3.40
2018-12-05T21:05:33.354Z,3.63
2018-12-05T21:08:04.550Z,4.90
2018-12-05T21:10:35.942Z,3.57
2018-12-05T21:13:07.498Z,3.53
2018-12-05T21:15:38.579Z,4.03
2018-12-05T21:18:09.266Z,3.90
2018-12-05T21:20:40.519Z,3.87
2018-12-05T21:23:10.653Z,3.97
2018-12-05T21:25:40.829Z,4.07
2018-12-05T21:28:11.883Z,4.17
2018-12-05T21:30:42.682Z,4.83
2018-12-05T21:33:13.584Z,4.50
2018-12-05T21:35:43.555Z,3.80
2018-12-05T21:38:13.590Z,5.53
2018-12-05T21:40:44.928Z,3.90
2018-12-05T21:43:16.454Z,4.00
2018-12-05T21:45:47.469Z,3.60
2018-12-05T21:48:18.338Z,3.93
2018-12-05T21:50:49.506Z,3.70
2018-12-05T21:53:19.559Z,4.17
2018-12-05T21:55:50.501Z,3.50
2018-12-05T21:58:21.071Z,4.00
2018-12-05T22:00:51.273Z,4.10
2018-12-05T22:03:22.124Z,4.10
2018-12-05T22:05:52.752Z,4.40
2018-12-05T22:08:24.340Z,4.37
2018-12-05T22:10:54.483Z,4.30
2018-12-05T22:13:24.593Z,4.70
2018-12-05T22:15:54.751Z,4.47
2018-12-05T22:18:25.693Z,4.20
2018-12-05T22:20:56.904Z,4.37
2018-12-05T22:23:27.752Z,4.83
2018-12-05T22:25:58.559Z,4.70
2018-12-05T22:28:30.221Z,4.33
2018-12-05T22:31:02.307Z,3.80
2018-12-05T22:33:32.542Z,4.13
2018-12-05T22:36:04.093Z,4.43
2018-12-05T22:38:35.009Z,4.60
2018-12-05T22:41:06.388Z,4.53
2018-12-05T22:43:37.718Z,4.77
2018-12-05T22:46:09.991Z,4.27
2018-12-05T22:48:41.234Z,4.67
2018-12-05T22:51:11.299Z,4.47
2018-12-05T22:53:41.303Z,5.17
2018-12-05T22:56:11.353Z,4.20
2018-12-05T22:58:41.413Z,5.53
2018-12-05T23:01:11.865Z,5.00
2018-12-05T23:03:42.516Z,4.40
2018-12-05T23:06:13.643Z,4.23
2018-12-05T23:08:45.264Z,5.13
2018-12-05T23:11:16.141Z,4.33
2018-12-05T23:13:46.477Z,5.20
2018-12-05T23:16:17.735Z,4.40
2018-12-05T23:18:49.380Z,3.97
2018-12-05T23:21:20.254Z,3.73
2018-12-05T23:23:50.306Z,4.80
2018-12-05T23:26:20.859Z,4.30
2018-12-05T23:28:52.244Z,4.73
2018-12-05T23:31:22.762Z,5.53
2018-12-05T23:33:53.387Z,5.53
2018-12-05T23:36:23.555Z,4.30
2018-12-05T23:38:54.785Z,5.00
2018-12-05T23:41:26.234Z,4.73
2018-12-05T23:43:57.694Z,5.50
2018-12-05T23:46:27.703Z,5.00
2018-12-05T23:48:59.133Z,4.70
2018-12-05T23:51:30.417Z,4.27
2018-12-05T23:54:01.279Z,4.90
2018-12-05T23:56:31.292Z,4.50
2018-12-05T23:59:01.636Z,4.80
